CheckWX is a tool to help pilots better visualize weather data.  It is not intended as a substitute for an official pre-flight weather briefing.

00:38:41 UTC

EGYP METAR
Mount Pleasant Airport
Mount Pleasant, Falkland Islands
Current

49 mins ago

EGYP 262350Z 29015KT CAVOK 11/03 Q1013 BLU NOSIG
Observed
Mar-26 @ 23:50 UTC
Wind
  • 290° at 15 KTS
Visibility
10,000+ meters
Flight Rules
VFR
Cloud Levels
  • Clear skies
Temperature
11°C / 52°F
Dewpoint
C / 37°F
Humidity
58%
Altimeter
29.91" Hg
Pressure
1012.92 hPa
Previous

2 hours ago

EGYP 262250Z 29011KT CAVOK 10/03 Q1013 BLU NOSIG
Observed
Mar-26 @ 22:50 UTC
Wind
  • 290° at 11 KTS
Visibility
10,000+ meters
Flight Rules
VFR
Cloud Levels
  • Clear skies
Temperature
10°C / 50°F
Dewpoint
C / 37°F
Humidity
62%
Altimeter
29.91" Hg
Pressure
1012.92 hPa
Previous

3 hours ago

EGYP 262150Z 28012KT 9999 FEW024 BKN048 BKN100 10/04 Q1013 BLU
Observed
Mar-26 @ 21:50 UTC
Wind
  • 280° at 12 KTS
Visibility
10,000+ meters
Flight Rules
VFR
Cloud Levels
  • Few at 2,400' AGL
  • Broken at 4,800' AGL
  • Broken at 10,000' AGL
Temperature
10°C / 50°F
Dewpoint
C / 39°F
Humidity
67%
Altimeter
29.91" Hg
Pressure
1012.92 hPa